Time;durP1;ratioP1;P1;durP2;ratioP2;P2;SDS_P1;SDS_P2;PMS_P1;PMS_P2;Temp;Humidity;BMP_temperature;BMP_pressure;BME280_temperature;BME280_humidity;BME280_pressure;Samples;Min_cycle;Max_cycle;Signal;HPM_P1;HPM_P2
2021/11/12 00:13:32;;;;;;;364.15;43.40;;;2.00;99.90;;;;;;20858658;28;20052;-78
2021/11/12 00:23:37;;;;;;;123.30;33.35;;;2.10;99.90;;;;;;20873796;28;20484;-79
2021/11/12 00:44:06;;;;;;;109.75;33.25;;;2.40;99.90;;;;;;20877042;28;20087;-80
2021/11/12 00:54:07;;;;;;;156.80;32.50;;;2.40;99.90;;;;;;20855153;28;20040;-80
2021/11/12 01:04:10;;;;;;;139.57;32.80;;;2.50;99.90;;;;;;20891954;28;20033;-80
2021/11/12 01:14:15;;;;;;;171.45;33.53;;;2.50;99.90;;;;;;20872978;28;20044;-80
2021/11/12 01:24:16;;;;;;;311.95;40.17;;;2.50;99.90;;;;;;20888795;28;20036;-78
2021/11/12 01:34:17;;;;;;;479.50;47.90;;;2.60;99.90;;;;;;20888785;28;20488;-77
2021/11/12 01:44:28;;;;;;;;;;;2.60;99.90;;;;;;20887699;28;20033;-79
2021/11/12 02:04:38;;;;;;;243.45;33.80;;;2.70;99.90;;;;;;20886098;28;20407;-80
2021/11/12 02:14:40;;;;;;;254.88;30.42;;;2.80;99.90;;;;;;20866441;28;20060;-79
2021/11/12 02:24:53;;;;;;;167.07;29.73;;;2.60;99.90;;;;;;20884232;28;20030;-79
2021/11/12 02:34:58;;;;;;;277.40;32.50;;;2.60;99.90;;;;;;20865918;28;20038;-79
2021/11/12 02:44:59;;;;;;;156.95;29.23;;;2.40;99.90;;;;;;20883714;23;20048;-76
2021/11/12 02:55:00;;;;;;;73.72;25.30;;;2.30;99.90;;;;;;20891434;28;20115;-76
2021/11/12 03:05:01;;;;;;;121.30;25.35;;;2.50;99.90;;;;;;20828680;28;20517;-76
2021/11/12 03:15:04;;;;;;;72.55;24.80;;;2.40;99.90;;;;;;20809847;28;20033;-76
2021/11/12 03:25:13;;;;;;;160.60;29.10;;;2.40;99.90;;;;;;20827378;28;20554;-76
2021/11/12 05:59:28;;;;;;;80.68;21.80;;;2.20;99.90;;;;;;20836514;28;20037;-76
2021/11/12 06:09:29;;;;;;;95.30;24.45;;;2.20;99.90;;;;;;20851552;28;20034;-76
2021/11/12 06:19:30;;;;;;;87.57;25.48;;;2.10;99.90;;;;;;20836093;28;20112;-77
2021/11/12 06:29:31;;;;;;;89.30;25.80;;;2.00;99.90;;;;;;20917596;28;20056;-75
2021/11/12 06:39:32;;;;;;;93.75;24.85;;;2.00;99.90;;;;;;20933995;28;20063;-76
2021/11/12 06:49:38;;;;;;;96.60;24.08;;;2.20;99.90;;;;;;20938986;28;20063;-78
2021/11/12 06:59:39;;;;;;;54.83;22.75;;;2.30;99.90;;;;;;20940617;28;20041;-79
2021/11/12 07:09:41;;;;;;;73.38;22.70;;;2.40;99.90;;;;;;20920483;28;20090;-78
2021/11/12 07:19:42;;;;;;;82.28;23.33;;;2.50;99.90;;;;;;20919724;28;20029;-79
2021/11/12 07:29:45;;;;;;;122.28;24.73;;;2.60;99.90;;;;;;20936556;28;20028;-80
2021/11/12 07:39:51;;;;;;;116.00;24.60;;;2.60;99.90;;;;;;20914310;28;20032;-79
2021/11/12 07:49:58;;;;;;;85.68;26.20;;;2.60;99.90;;;;;;20931667;28;20036;-78
2021/11/12 07:59:59;;;;;;;116.28;38.50;;;2.70;99.90;;;;;;20914564;28;20043;-79
2021/11/12 08:10:03;;;;;;;140.35;25.60;;;2.80;99.90;;;;;;20940030;28;20044;-79
2021/11/12 08:20:20;;;;;;;53.00;23.60;;;2.80;99.90;;;;;;20924992;28;20036;-79
2021/11/12 08:50:33;;;;;;;132.70;24.77;;;3.10;99.90;;;;;;20947684;22;20041;-79
2021/11/12 09:00:37;;;;;;;67.05;22.95;;;3.00;99.90;;;;;;20937613;28;20044;-79
2021/11/12 09:10:37;;;;;;;287.13;30.10;;;3.20;99.90;;;;;;20952875;28;20033;-81
2021/11/12 09:20:38;;;;;;;;;;;3.40;99.90;;;;;;20974829;28;20025;-77
2021/11/12 09:30:41;;;;;;;78.18;25.20;;;3.50;99.90;;;;;;20957999;28;19928;-79
2021/11/12 09:40:42;;;;;;;58.67;24.52;;;3.60;99.90;;;;;;20970504;28;20029;-79
2021/11/12 09:50:43;;;;;;;64.68;23.40;;;3.80;99.90;;;;;;20987793;28;20024;-79
2021/11/12 10:00:43;;;;;;;;;;;3.90;99.90;;;;;;20969042;28;20037;-81
2021/11/12 10:10:48;;;;;;;61.10;24.35;;;4.20;99.90;;;;;;20910669;28;20390;-81
2021/11/12 10:21:01;;;;;;;57.10;23.17;;;4.20;99.90;;;;;;20888441;28;20033;-79
2021/11/12 10:31:17;;;;;;;57.20;25.23;;;4.10;99.90;;;;;;20889757;28;20040;-81
2021/11/12 10:41:25;;;;;;;87.45;24.75;;;4.50;99.90;;;;;;20872884;28;20033;-82
2021/11/12 10:51:29;;;;;;;45.42;20.95;;;4.70;99.90;;;;;;20865991;28;20060;-81
2021/11/12 11:01:40;;;;;;;46.97;21.35;;;5.00;99.90;;;;;;20832171;28;20040;-81
2021/11/12 11:11:42;;;;;;;37.88;19.67;;;5.00;99.90;;;;;;20809132;28;20127;-81
2021/11/12 11:21:43;;;;;;;130.88;32.55;;;5.20;99.90;;;;;;20844612;28;20029;-81
2021/11/12 11:31:44;;;;;;;55.20;21.77;;;5.00;99.90;;;;;;20822058;28;20056;-82
2021/11/12 11:41:46;;;;;;;47.58;20.55;;;5.20;99.90;;;;;;20834708;28;20079;-80
2021/11/12 11:51:53;;;;;;;39.75;21.23;;;5.10;99.90;;;;;;20817389;28;20499;-80
2021/11/12 12:01:57;;;;;;;45.15;22.50;;;5.10;99.90;;;;;;20834525;28;20064;-80
2021/11/12 12:11:58;;;;;;;47.15;23.08;;;5.00;99.90;;;;;;20833300;28;20061;-80
2021/11/12 12:22:34;;;;;;;51.90;24.23;;;5.40;99.90;;;;;;20799506;28;20400;-77
2021/11/12 12:33:18;;;;;;;51.67;25.57;;;5.10;99.90;;;;;;20835512;28;21094;-79
2021/11/12 13:25:23;;;;;;;51.22;24.75;;;5.50;99.90;;;;;;20789487;28;20033;-82
2021/11/12 13:35:32;;;;;;;63.20;25.70;;;5.50;99.90;;;;;;20792272;28;20029;-82
2021/11/12 13:45:33;;;;;;;69.28;27.77;;;5.20;99.90;;;;;;20797982;28;20037;-78
2021/11/12 13:55:38;;;;;;;58.23;27.30;;;5.40;99.90;;;;;;20803381;28;20793;-77
2021/11/12 14:06:01;;;;;;;59.10;26.50;;;5.50;99.90;;;;;;20797122;28;20287;-79
2021/11/12 14:16:12;;;;;;;64.50;28.15;;;5.40;99.90;;;;;;20795714;28;20034;-79
2021/11/12 14:26:27;;;;;;;52.93;22.73;;;5.40;99.90;;;;;;20778621;28;20087;-78
2021/11/12 14:36:33;;;;;;;65.75;29.90;;;5.40;99.90;;;;;;20803849;28;20044;-77
2021/11/12 14:46:40;;;;;;;62.38;28.05;;;5.40;99.90;;;;;;20881137;22;20048;-79
2021/11/12 14:56:49;;;;;;;59.88;28.38;;;5.40;99.90;;;;;;21033060;28;20055;-79
2021/11/12 15:06:52;;;;;;;74.40;30.92;;;5.30;99.90;;;;;;20987190;28;20097;-78
2021/11/12 15:16:53;;;;;;;110.30;34.42;;;5.20;99.90;;;;;;21004284;28;20063;-79
2021/11/12 15:57:53;;;;;;;90.35;33.95;;;5.10;99.90;;;;;;20997355;28;20040;-78
2021/11/12 16:07:54;;;;;;;95.93;35.97;;;5.10;99.90;;;;;;21022131;28;20032;-78
2021/11/12 16:28:04;;;;;;;86.00;33.08;;;5.20;99.90;;;;;;21049968;28;20028;-79
2021/11/12 16:38:16;;;;;;;89.28;33.47;;;5.20;99.90;;;;;;21017404;28;20024;-78
2021/11/12 17:08:48;;;;;;;80.80;32.00;;;5.20;99.90;;;;;;21049483;28;20061;-78
2021/11/12 21:49:09;;;;;;;149.82;31.35;;;4.00;99.90;;;;;;20699010;28;20402;-84
2021/11/12 21:59:11;;;;;;;135.43;30.38;;;4.10;99.90;;;;;;20684004;28;20068;-81
2021/11/12 22:09:13;;;;;;;157.10;31.95;;;4.10;99.90;;;;;;20678299;28;20385;-84
2021/11/12 22:19:14;;;;;;;88.43;28.95;;;4.00;99.90;;;;;;20666670;28;20132;-82
2021/11/12 22:29:21;;;;;;;72.80;25.27;;;4.10;99.90;;;;;;20660991;28;20033;-83
2021/11/12 22:39:22;;;;;;;56.85;24.45;;;3.90;99.90;;;;;;20683414;28;20057;-83
2021/11/12 22:49:24;;;;;;;88.97;25.83;;;4.00;99.90;;;;;;20676345;28;20420;-82
2021/11/12 22:59:25;;;;;;;71.35;23.30;;;3.80;99.90;;;;;;20691588;28;20030;-82
2021/11/12 23:09:26;;;;;;;70.00;24.48;;;3.70;99.90;;;;;;20686450;28;20574;-86
2021/11/12 23:19:28;;;;;;;76.25;24.63;;;3.60;99.90;;;;;;20694723;28;20043;-83
2021/11/12 23:29:29;;;;;;;142.13;28.48;;;3.50;99.90;;;;;;20691606;28;20041;-82
2021/11/12 23:39:30;;;;;;;73.28;26.38;;;3.40;99.90;;;;;;20685366;28;20083;-83
2021/11/12 23:49:31;;;;;;;102.07;26.70;;;3.30;99.90;;;;;;20683368;28;20041;-81
2021/11/12 23:59:32;;;;;;;99.50;28.40;;;3.30;99.90;;;;;;20698293;28;20111;-81
